sensor_id;sensor_type;location;lat;lon;timestamp;pressure;altitude;pressure_sealevel;temperature;humidity
56402;BME280;42299;35.160;26.100;2022-07-11T00:01:08;100583.41;;;22.60;66.44
56402;BME280;42299;35.160;26.100;2022-07-11T00:02:30;100583.47;;;22.59;66.50
56402;BME280;42299;35.160;26.100;2022-07-11T00:03:52;100588.91;;;22.57;66.62
56402;BME280;42299;35.160;26.100;2022-07-11T00:05:14;100595.09;;;22.59;66.46
56402;BME280;42299;35.160;26.100;2022-07-11T00:06:37;100593.28;;;22.60;66.27
56402;BME280;42299;35.160;26.100;2022-07-11T00:07:58;100592.38;;;22.61;66.24
56402;BME280;42299;35.160;26.100;2022-07-11T00:09:20;100595.88;;;22.63;66.05
56402;BME280;42299;35.160;26.100;2022-07-11T00:10:42;100590.50;;;22.63;66.00
56402;BME280;42299;35.160;26.100;2022-07-11T00:12:05;100589.56;;;22.64;65.89
56402;BME280;42299;35.160;26.100;2022-07-11T00:13:27;100586.06;;;22.62;66.23
56402;BME280;42299;35.160;26.100;2022-07-11T00:14:50;100583.47;;;22.59;66.38
56402;BME280;42299;35.160;26.100;2022-07-11T00:16:13;100575.47;;;22.57;66.51
56402;BME280;42299;35.160;26.100;2022-07-11T00:17:36;100581.66;;;22.59;66.44
56402;BME280;42299;35.160;26.100;2022-07-11T00:18:58;100580.75;;;22.59;66.33
56402;BME280;42299;35.160;26.100;2022-07-11T00:20:19;100580.72;;;22.60;66.37
56402;BME280;42299;35.160;26.100;2022-07-11T00:21:42;100589.69;;;22.61;66.35
56402;BME280;42299;35.160;26.100;2022-07-11T00:23:03;100574.50;;;22.58;66.46
56402;BME280;42299;35.160;26.100;2022-07-11T00:24:26;100580.75;;;22.59;66.58
56402;BME280;42299;35.160;26.100;2022-07-11T00:25:48;100574.47;;;22.60;66.48
56402;BME280;42299;35.160;26.100;2022-07-11T00:27:11;100568.16;;;22.61;66.49
56402;BME280;42299;35.160;26.100;2022-07-11T00:28:34;100576.16;;;22.62;66.51
56402;BME280;42299;35.160;26.100;2022-07-11T00:29:56;100574.34;;;22.63;66.51
56402;BME280;42299;35.160;26.100;2022-07-11T00:31:20;100579.75;;;22.63;66.79
56402;BME280;42299;35.160;26.100;2022-07-11T00:32:42;100583.38;;;22.62;66.85
56402;BME280;42299;35.160;26.100;2022-07-11T00:34:05;100588.78;;;22.60;67.03
56402;BME280;42299;35.160;26.100;2022-07-11T00:35:26;100578.91;;;22.61;67.01
56402;BME280;42299;35.160;26.100;2022-07-11T00:36:49;100580.66;;;22.62;67.04
56402;BME280;42299;35.160;26.100;2022-07-11T00:38:11;100581.50;;;22.64;66.99
56402;BME280;42299;35.160;26.100;2022-07-11T00:39:32;100581.50;;;22.64;67.03
56402;BME280;42299;35.160;26.100;2022-07-11T00:40:55;100573.44;;;22.64;67.03
56402;BME280;42299;35.160;26.100;2022-07-11T00:42:17;100574.41;;;22.61;66.99
56402;BME280;42299;35.160;26.100;2022-07-11T00:43:40;100578.91;;;22.61;66.94
56402;BME280;42299;35.160;26.100;2022-07-11T00:45:02;100573.53;;;22.61;66.85
56402;BME280;42299;35.160;26.100;2022-07-11T00:46:26;100572.69;;;22.59;66.48
56402;BME280;42299;35.160;26.100;2022-07-11T00:47:48;100578.97;;;22.59;66.33
56402;BME280;42299;35.160;26.100;2022-07-11T00:49:10;100567.25;;;22.60;66.06
56402;BME280;42299;35.160;26.100;2022-07-11T00:50:32;100574.59;;;22.57;66.05
56402;BME280;42299;35.160;26.100;2022-07-11T00:51:54;100577.31;;;22.55;66.06
56402;BME280;42299;35.160;26.100;2022-07-11T00:53:17;100584.38;;;22.58;65.74
56402;BME280;42299;35.160;26.100;2022-07-11T00:54:39;100583.53;;;22.57;65.64
56402;BME280;42299;35.160;26.100;2022-07-11T00:56:02;100578.16;;;22.57;65.56
56402;BME280;42299;35.160;26.100;2022-07-11T00:57:23;100577.31;;;22.55;65.57
56402;BME280;42299;35.160;26.100;2022-07-11T00:58:46;100585.34;;;22.57;65.50
56402;BME280;42299;35.160;26.100;2022-07-11T01:00:09;100579.00;;;22.58;65.36
56402;BME280;42299;35.160;26.100;2022-07-11T01:01:37;100588.78;;;22.60;65.18
56402;BME280;42299;35.160;26.100;2022-07-11T01:02:58;100580.75;;;22.59;65.08
56402;BME280;42299;35.160;26.100;2022-07-11T01:04:21;100586.22;;;22.57;65.26
56402;BME280;42299;35.160;26.100;2022-07-11T01:05:44;100587.25;;;22.53;65.38
56402;BME280;42299;35.160;26.100;2022-07-11T01:07:05;100580.19;;;22.51;65.45
56402;BME280;42299;35.160;26.100;2022-07-11T01:08:28;100591.81;;;22.51;65.59
56402;BME280;42299;35.160;26.100;2022-07-11T01:09:52;100582.75;;;22.54;65.48
56402;BME280;42299;35.160;26.100;2022-07-11T01:11:14;100587.16;;;22.56;65.56
56402;BME280;42299;35.160;26.100;2022-07-11T01:12:37;100585.22;;;22.60;65.26
56402;BME280;42299;35.160;26.100;2022-07-11T01:13:59;100582.44;;;22.63;65.26
56402;BME280;42299;35.160;26.100;2022-07-11T01:15:22;100579.75;;;22.63;65.22
56402;BME280;42299;35.160;26.100;2022-07-11T01:16:45;100568.16;;;22.61;65.41
56402;BME280;42299;35.160;26.100;2022-07-11T01:18:07;100574.50;;;22.58;65.64
56402;BME280;42299;35.160;26.100;2022-07-11T01:19:28;100579.97;;;22.57;65.51
56402;BME280;42299;35.160;26.100;2022-07-11T01:20:51;100566.44;;;22.58;65.34
56402;BME280;42299;35.160;26.100;2022-07-11T01:22:14;100580.06;;;22.54;65.20
56402;BME280;42299;35.160;26.100;2022-07-11T01:23:38;100583.72;;;22.51;65.16
56402;BME280;42299;35.160;26.100;2022-07-11T01:25:01;100580.06;;;22.54;64.89
56402;BME280;42299;35.160;26.100;2022-07-11T01:26:24;100576.50;;;22.53;64.67
56402;BME280;42299;35.160;26.100;2022-07-11T01:27:46;100580.94;;;22.54;64.56
56402;BME280;42299;35.160;26.100;2022-07-11T01:29:10;100591.66;;;22.56;64.44
56402;BME280;42299;35.160;26.100;2022-07-11T01:30:33;100588.03;;;22.57;64.37
56402;BME280;42299;35.160;26.100;2022-07-11T01:31:54;100591.53;;;22.59;64.35
56402;BME280;42299;35.160;26.100;2022-07-11T01:33:17;100587.97;;;22.58;64.32
56402;BME280;42299;35.160;26.100;2022-07-11T01:34:38;100593.34;;;22.58;64.35
56402;BME280;42299;35.160;26.100;2022-07-11T01:36:00;100591.66;;;22.56;64.41
56402;BME280;42299;35.160;26.100;2022-07-11T01:37:22;100598.91;;;22.54;64.59
56402;BME280;42299;35.160;26.100;2022-07-11T01:38:46;100591.75;;;22.53;64.65
56402;BME280;42299;35.160;26.100;2022-07-11T01:40:09;100592.63;;;22.53;64.71
56402;BME280;42299;35.160;26.100;2022-07-11T01:41:32;100593.53;;;22.54;64.69
56402;BME280;42299;35.160;26.100;2022-07-11T01:42:54;100588.28;;;22.51;64.83
56402;BME280;42299;35.160;26.100;2022-07-11T01:44:16;100597.41;;;22.45;65.03
56402;BME280;42299;35.160;26.100;2022-07-11T01:45:38;100587.47;;;22.47;64.94
56402;BME280;42299;35.160;26.100;2022-07-11T01:47:00;100590.16;;;22.47;64.84
56402;BME280;42299;35.160;26.100;2022-07-11T01:48:23;100588.38;;;22.48;64.74
56402;BME280;42299;35.160;26.100;2022-07-11T01:49:44;100591.88;;;22.50;64.65
56402;BME280;42299;35.160;26.100;2022-07-11T01:51:07;100585.56;;;22.51;64.60
56402;BME280;42299;35.160;26.100;2022-07-11T01:52:29;100583.69;;;22.53;64.63
56402;BME280;42299;35.160;26.100;2022-07-11T01:53:52;100589.06;;;22.53;64.61
56402;BME280;42299;35.160;26.100;2022-07-11T01:55:16;100583.81;;;22.50;64.79
56402;BME280;42299;35.160;26.100;2022-07-11T01:56:37;100589.13;;;22.51;64.81
56402;BME280;42299;35.160;26.100;2022-07-11T01:58:00;100583.69;;;22.53;64.88
56402;BME280;42299;35.160;26.100;2022-07-11T01:59:21;100580.28;;;22.48;64.98
56402;BME280;42299;35.160;26.100;2022-07-11T02:00:44;100582.16;;;22.46;64.95
56402;BME280;42299;35.160;26.100;2022-07-11T02:02:06;100585.84;;;22.43;64.87
56402;BME280;42299;35.160;26.100;2022-07-11T02:03:27;100585.81;;;22.45;64.63
56402;BME280;42299;35.160;26.100;2022-07-11T02:04:50;100582.97;;;22.48;64.26
56402;BME280;42299;35.160;26.100;2022-07-11T02:06:11;100582.00;;;22.50;64.09
56402;BME280;42299;35.160;26.100;2022-07-11T02:07:34;100589.19;;;22.50;64.07
56402;BME280;42299;35.160;26.100;2022-07-11T02:09:15;100588.28;;;22.51;64.19
56402;BME280;42299;35.160;26.100;2022-07-11T02:10:38;100587.38;;;22.50;64.09
56402;BME280;42299;35.160;26.100;2022-07-11T02:12:00;100590.97;;;22.51;64.34
56402;BME280;42299;35.160;26.100;2022-07-11T02:13:23;100598.91;;;22.54;64.25
56402;BME280;42299;35.160;26.100;2022-07-11T02:14:44;100589.13;;;22.51;64.24
56402;BME280;42299;35.160;26.100;2022-07-11T02:16:07;100591.75;;;22.53;64.16
56402;BME280;42299;35.160;26.100;2022-07-11T02:17:28;100597.03;;;22.56;64.02
56402;BME280;42299;35.160;26.100;2022-07-11T02:18:51;100588.03;;;22.57;63.93
56402;BME280;42299;35.160;26.100;2022-07-11T02:20:14;100588.91;;;22.57;63.88
56402;BME280;42299;35.160;26.100;2022-07-11T02:21:35;100589.78;;;22.58;63.76
56402;BME280;42299;35.160;26.100;2022-07-11T02:22:58;100590.59;;;22.60;63.68
56402;BME280;42299;35.160;26.100;2022-07-11T02:24:21;100590.59;;;22.60;63.61
56402;BME280;42299;35.160;26.100;2022-07-11T02:25:43;100594.22;;;22.59;63.66
56402;BME280;42299;35.160;26.100;2022-07-11T02:27:06;100592.38;;;22.61;63.66
56402;BME280;42299;35.160;26.100;2022-07-11T02:28:28;100587.97;;;22.58;63.66
56402;BME280;42299;35.160;26.100;2022-07-11T02:29:51;100594.31;;;22.57;63.87
56402;BME280;42299;35.160;26.100;2022-07-11T02:31:12;100586.22;;;22.57;63.97
56402;BME280;42299;35.160;26.100;2022-07-11T02:32:35;100580.75;;;22.59;63.91
56402;BME280;42299;35.160;26.100;2022-07-11T02:33:56;100586.22;;;22.57;63.86
56402;BME280;42299;35.160;26.100;2022-07-11T02:35:19;100583.53;;;22.57;63.94
56402;BME280;42299;35.160;26.100;2022-07-11T02:36:40;100590.88;;;22.52;64.20
56402;BME280;42299;35.160;26.100;2022-07-11T02:38:03;100593.66;;;22.51;64.37
56402;BME280;42299;35.160;26.100;2022-07-11T02:39:27;100581.00;;;22.53;64.29
56402;BME280;42299;35.160;26.100;2022-07-11T02:40:48;100589.91;;;22.55;64.43
56402;BME280;42299;35.160;26.100;2022-07-11T02:42:11;100593.53;;;22.54;64.45
56402;BME280;42299;35.160;26.100;2022-07-11T02:43:32;100589.91;;;22.55;64.62
56402;BME280;42299;35.160;26.100;2022-07-11T02:44:55;100594.34;;;22.56;64.62
56402;BME280;42299;35.160;26.100;2022-07-11T02:46:16;100588.13;;;22.54;64.66
56402;BME280;42299;35.160;26.100;2022-07-11T02:47:39;100581.88;;;22.53;64.80
56402;BME280;42299;35.160;26.100;2022-07-11T02:49:00;100594.44;;;22.53;64.93
56402;BME280;42299;35.160;26.100;2022-07-11T02:50:23;100588.13;;;22.54;65.01
56402;BME280;42299;35.160;26.100;2022-07-11T02:51:44;100599.88;;;22.51;65.03
56402;BME280;42299;35.160;26.100;2022-07-11T02:53:07;100597.13;;;22.53;65.23
56402;BME280;42299;35.160;26.100;2022-07-11T02:54:30;100589.03;;;22.54;65.37
56402;BME280;42299;35.160;26.100;2022-07-11T02:55:52;100597.97;;;22.55;65.43
56402;BME280;42299;35.160;26.100;2022-07-11T02:57:15;100594.44;;;22.53;65.63
56402;BME280;42299;35.160;26.100;2022-07-11T02:58:36;100589.13;;;22.51;65.71
56402;BME280;42299;35.160;26.100;2022-07-11T02:59:59;100587.25;;;22.53;65.71
56402;BME280;42299;35.160;26.100;2022-07-11T03:01:20;100590.88;;;22.52;65.77
56402;BME280;42299;35.160;26.100;2022-07-11T03:02:43;100597.09;;;22.54;65.70
56402;BME280;42299;35.160;26.100;2022-07-11T03:04:04;100589.03;;;22.54;65.59
56402;BME280;42299;35.160;26.100;2022-07-11T03:05:27;100591.66;;;22.56;65.53
56402;BME280;42299;35.160;26.100;2022-07-11T03:06:50;100591.66;;;22.56;65.42
56402;BME280;42299;35.160;26.100;2022-07-11T03:08:12;100601.53;;;22.55;65.33
56402;BME280;42299;35.160;26.100;2022-07-11T03:09:35;100589.03;;;22.54;65.28
56402;BME280;42299;35.160;26.100;2022-07-11T03:10:57;100588.19;;;22.52;65.29
56402;BME280;42299;35.160;26.100;2022-07-11T03:12:19;100590.13;;;22.49;65.34
56402;BME280;42299;35.160;26.100;2022-07-11T03:13:41;100588.31;;;22.49;65.31
56402;BME280;42299;35.160;26.100;2022-07-11T03:15:04;100590.13;;;22.49;65.09
56402;BME280;42299;35.160;26.100;2022-07-11T03:16:27;100591.00;;;22.49;64.99
56402;BME280;42299;35.160;26.100;2022-07-11T03:17:48;100595.50;;;22.49;64.82
56402;BME280;42299;35.160;26.100;2022-07-11T03:19:11;100601.78;;;22.49;64.71
56402;BME280;42299;35.160;26.100;2022-07-11T03:20:33;100589.13;;;22.51;64.65
56402;BME280;42299;35.160;26.100;2022-07-11T03:21:55;100595.28;;;22.55;64.75
56402;BME280;42299;35.160;26.100;2022-07-11T03:23:16;100588.91;;;22.57;64.58
56402;BME280;42299;35.160;26.100;2022-07-11T03:24:40;100597.84;;;22.58;64.64
56402;BME280;42299;35.160;26.100;2022-07-11T03:26:02;100593.44;;;22.57;64.93
56402;BME280;42299;35.160;26.100;2022-07-11T03:27:24;100589.78;;;22.58;65.23
56402;BME280;42299;35.160;26.100;2022-07-11T03:28:47;100590.44;;;22.64;65.16
56402;BME280;42299;35.160;26.100;2022-07-11T03:30:09;100599.09;;;22.74;65.04
56402;BME280;42299;35.160;26.100;2022-07-11T03:31:32;100606.00;;;22.81;64.77
56402;BME280;42299;35.160;26.100;2022-07-11T03:32:54;100611.09;;;22.89;64.47
56402;BME280;42299;35.160;26.100;2022-07-11T03:34:16;100609.06;;;22.95;64.17
56402;BME280;42299;35.160;26.100;2022-07-11T03:35:37;100611.47;;;23.03;63.99
56402;BME280;42299;35.160;26.100;2022-07-11T03:37:03;100620.19;;;23.10;63.73
56402;BME280;42299;35.160;26.100;2022-07-11T03:38:26;100614.56;;;23.16;63.42
56402;BME280;42299;35.160;26.100;2022-07-11T03:39:50;100604.59;;;23.18;63.26
56402;BME280;42299;35.160;26.100;2022-07-11T03:41:12;100599.78;;;23.26;63.02
56402;BME280;42299;35.160;26.100;2022-07-11T03:42:33;100612.97;;;23.33;62.70
56402;BME280;42299;35.160;26.100;2022-07-11T03:43:56;100605.47;;;23.41;62.61
56402;BME280;42299;35.160;26.100;2022-07-11T03:45:17;100614.97;;;23.52;62.42
56402;BME280;42299;35.160;26.100;2022-07-11T03:46:40;100612.91;;;23.58;62.25
56402;BME280;42299;35.160;26.100;2022-07-11T03:48:02;100614.53;;;23.62;61.96
56402;BME280;42299;35.160;26.100;2022-07-11T03:49:24;100615.09;;;23.70;62.08
56402;BME280;42299;35.160;26.100;2022-07-11T03:50:47;100612.91;;;23.80;61.75
56402;BME280;42299;35.160;26.100;2022-07-11T03:52:08;100624.31;;;23.87;61.56
56402;BME280;42299;35.160;26.100;2022-07-11T03:53:31;100615.84;;;23.96;61.67
56402;BME280;42299;35.160;26.100;2022-07-11T03:54:53;100618.16;;;24.05;61.21
56402;BME280;42299;35.160;26.100;2022-07-11T03:56:16;100624.09;;;24.13;61.19
56402;BME280;42299;35.160;26.100;2022-07-11T03:57:43;100622.00;;;24.21;61.11
56402;BME280;42299;35.160;26.100;2022-07-11T03:59:04;100622.59;;;24.28;61.24
56402;BME280;42299;35.160;26.100;2022-07-11T04:00:27;100626.72;;;24.36;61.04
56402;BME280;42299;35.160;26.100;2022-07-11T04:01:48;100618.22;;;24.45;60.66
56402;BME280;42299;35.160;26.100;2022-07-11T04:03:11;100618.69;;;24.55;60.43
56402;BME280;42299;35.160;26.100;2022-07-11T04:04:32;100620.97;;;24.64;60.19
56402;BME280;42299;35.160;26.100;2022-07-11T04:05:55;100617.72;;;24.76;60.03
56402;BME280;42299;35.160;26.100;2022-07-11T04:07:17;100621.66;;;24.89;59.78
56402;BME280;42299;35.160;26.100;2022-07-11T04:08:39;100623.94;;;24.98;59.40
56402;BME280;42299;35.160;26.100;2022-07-11T04:10:03;100622.72;;;25.06;59.07
56402;BME280;42299;35.160;26.100;2022-07-11T04:11:26;100625.06;;;25.13;59.22
56402;BME280;42299;35.160;26.100;2022-07-11T04:12:49;100631.78;;;25.23;58.87
56402;BME280;42299;35.160;26.100;2022-07-11T04:14:11;100625.16;;;25.30;58.85
56402;BME280;42299;35.160;26.100;2022-07-11T04:15:33;100637.34;;;25.39;58.85
56402;BME280;42299;35.160;26.100;2022-07-11T04:16:55;100633.91;;;25.54;58.64
56402;BME280;42299;35.160;26.100;2022-07-11T04:18:18;100632.56;;;25.64;58.20
56402;BME280;42299;35.160;26.100;2022-07-11T04:19:40;100631.94;;;25.76;58.29
56402;BME280;42299;35.160;26.100;2022-07-11T04:21:03;100629.69;;;25.86;57.70
56402;BME280;42299;35.160;26.100;2022-07-11T04:22:26;100631.97;;;25.94;57.14
56402;BME280;42299;35.160;26.100;2022-07-11T04:23:48;100626.13;;;26.03;57.16
56402;BME280;42299;35.160;26.100;2022-07-11T04:25:12;100621.03;;;26.14;56.64
56402;BME280;42299;35.160;26.100;2022-07-11T04:26:35;100623.41;;;26.20;56.31
56402;BME280;42299;35.160;26.100;2022-07-11T04:27:57;100634.69;;;26.30;55.91
56402;BME280;42299;35.160;26.100;2022-07-11T04:29:19;100633.25;;;26.40;55.59
56402;BME280;42299;35.160;26.100;2022-07-11T04:30:42;100637.88;;;26.55;55.24
56402;BME280;42299;35.160;26.100;2022-07-11T04:32:05;100632.63;;;26.69;54.89
56402;BME280;42299;35.160;26.100;2022-07-11T04:33:27;100633.72;;;26.82;54.25
56402;BME280;42299;35.160;26.100;2022-07-11T04:34:49;100636.59;;;26.96;53.98
56402;BME280;42299;35.160;26.100;2022-07-11T04:36:10;100629.34;;;27.13;53.38
56402;BME280;42299;35.160;26.100;2022-07-11T04:37:33;100635.63;;;27.30;52.79
56402;BME280;42299;35.160;26.100;2022-07-11T04:38:55;100634.94;;;27.43;52.40
56402;BME280;42299;35.160;26.100;2022-07-11T04:40:19;100635.75;;;27.60;51.89
56402;BME280;42299;35.160;26.100;2022-07-11T04:41:41;100636.88;;;27.72;51.37
56402;BME280;42299;35.160;26.100;2022-07-11T04:43:04;100642.47;;;27.85;51.17
56402;BME280;42299;35.160;26.100;2022-07-11T04:44:27;100629.41;;;28.07;50.63
56402;BME280;42299;35.160;26.100;2022-07-11T04:45:48;100638.53;;;28.22;49.99
56402;BME280;42299;35.160;26.100;2022-07-11T04:47:11;100638.66;;;28.34;49.52
56402;BME280;42299;35.160;26.100;2022-07-11T04:48:32;100641.59;;;28.45;49.07
56402;BME280;42299;35.160;26.100;2022-07-11T04:49:54;100647.66;;;28.65;48.69
56402;BME280;42299;35.160;26.100;2022-07-11T04:51:17;100648.31;;;28.84;48.36
56402;BME280;42299;35.160;26.100;2022-07-11T04:52:41;100640.75;;;29.03;47.86
56402;BME280;42299;35.160;26.100;2022-07-11T04:54:03;100648.34;;;29.12;47.45
56402;BME280;42299;35.160;26.100;2022-07-11T04:55:27;100647.56;;;29.24;47.24
56402;BME280;42299;35.160;26.100;2022-07-11T04:56:49;100653.03;;;29.39;46.75
56402;BME280;42299;35.160;26.100;2022-07-11T04:58:11;100657.28;;;29.57;46.49
56402;BME280;42299;35.160;26.100;2022-07-11T04:59:33;100655.00;;;29.78;45.95
56402;BME280;42299;35.160;26.100;2022-07-11T05:00:55;100644.78;;;29.95;45.90
56402;BME280;42299;35.160;26.100;2022-07-11T05:02:18;100642.88;;;30.10;45.21
56402;BME280;42299;35.160;26.100;2022-07-11T05:03:39;100651.50;;;30.17;45.06
56402;BME280;42299;35.160;26.100;2022-07-11T05:05:02;100653.41;;;30.29;44.54
56402;BME280;42299;35.160;26.100;2022-07-11T05:06:25;100658.09;;;30.39;44.02
56402;BME280;42299;35.160;26.100;2022-07-11T05:07:47;100652.94;;;30.49;44.00
56402;BME280;42299;35.160;26.100;2022-07-11T05:09:09;100662.13;;;30.73;43.91
56402;BME280;42299;35.160;26.100;2022-07-11T05:10:33;100658.69;;;30.97;43.05
56402;BME280;42299;35.160;26.100;2022-07-11T05:11:57;100667.75;;;31.10;42.74
56402;BME280;42299;35.160;26.100;2022-07-11T05:13:18;100661.53;;;31.20;42.26
56402;BME280;42299;35.160;26.100;2022-07-11T05:14:41;100668.81;;;31.33;42.19
56402;BME280;42299;35.160;26.100;2022-07-11T05:16:02;100672.19;;;31.49;41.93
56402;BME280;42299;35.160;26.100;2022-07-11T05:17:25;100666.50;;;31.64;41.59
56402;BME280;42299;35.160;26.100;2022-07-11T05:18:46;100676.75;;;31.74;41.17
56402;BME280;42299;35.160;26.100;2022-07-11T05:20:10;100671.66;;;31.93;40.99
56402;BME280;42299;35.160;26.100;2022-07-11T05:21:32;100673.78;;;32.13;40.45
56402;BME280;42299;35.160;26.100;2022-07-11T05:22:54;100669.84;;;32.41;40.28
56402;BME280;42299;35.160;26.100;2022-07-11T05:24:17;100671.75;;;32.52;39.65
56402;BME280;42299;35.160;26.100;2022-07-11T05:25:41;100667.66;;;32.57;39.26
56402;BME280;42299;35.160;26.100;2022-07-11T05:27:04;100681.28;;;32.70;39.38
56402;BME280;42299;35.160;26.100;2022-07-11T05:28:27;100677.13;;;32.88;38.95
56402;BME280;42299;35.160;26.100;2022-07-11T05:29:49;100686.22;;;33.00;38.78
56402;BME280;42299;35.160;26.100;2022-07-11T05:31:11;100681.13;;;33.06;38.84
56402;BME280;42299;35.160;26.100;2022-07-11T05:32:34;100676.94;;;33.13;38.82
56402;BME280;42299;35.160;26.100;2022-07-11T05:33:56;100680.81;;;33.22;38.17
56402;BME280;42299;35.160;26.100;2022-07-11T05:35:18;100689.78;;;33.24;38.24
56402;BME280;42299;35.160;26.100;2022-07-11T05:36:40;100701.38;;;33.28;38.40
56402;BME280;42299;35.160;26.100;2022-07-11T05:38:04;100689.16;;;33.32;37.95
56402;BME280;42299;35.160;26.100;2022-07-11T05:39:26;100689.91;;;33.34;37.93
56402;BME280;42299;35.160;26.100;2022-07-11T05:40:50;100693.91;;;33.41;37.80
56402;BME280;42299;35.160;26.100;2022-07-11T05:42:11;100689.66;;;33.37;37.64
56402;BME280;42299;35.160;26.100;2022-07-11T05:43:35;100697.59;;;33.29;37.81
56402;BME280;42299;35.160;26.100;2022-07-11T05:44:56;100705.34;;;33.46;37.79
56402;BME280;42299;35.160;26.100;2022-07-11T05:46:19;100701.13;;;33.53;37.21
56402;BME280;42299;35.160;26.100;2022-07-11T05:47:42;100702.59;;;33.57;37.26
56402;BME280;42299;35.160;26.100;2022-07-11T05:49:04;100708.34;;;33.76;37.19
56402;BME280;42299;35.160;26.100;2022-07-11T05:50:25;100703.38;;;33.92;36.87
56402;BME280;42299;35.160;26.100;2022-07-11T05:51:48;100698.47;;;33.96;36.70
56402;BME280;42299;35.160;26.100;2022-07-11T05:53:11;100702.84;;;33.98;36.58
56402;BME280;42299;35.160;26.100;2022-07-11T05:54:33;100703.69;;;34.10;36.41
56402;BME280;42299;35.160;26.100;2022-07-11T05:55:57;100706.31;;;34.23;36.40
56402;BME280;42299;35.160;26.100;2022-07-11T05:57:19;100694.22;;;34.25;36.03
56402;BME280;42299;35.160;26.100;2022-07-11T05:58:41;100698.94;;;34.23;35.89
56402;BME280;42299;35.160;26.100;2022-07-11T06:00:03;100702.56;;;34.24;35.89
56402;BME280;42299;35.160;26.100;2022-07-11T06:01:30;100696.31;;;34.33;35.52
56402;BME280;42299;35.160;26.100;2022-07-11T06:02:53;100688.00;;;34.23;35.55
56402;BME280;42299;35.160;26.100;2022-07-11T06:04:16;100698.84;;;34.25;35.84
56402;BME280;42299;35.160;26.100;2022-07-11T06:05:37;100701.13;;;34.40;35.36
56402;BME280;42299;35.160;26.100;2022-07-11T06:06:59;100709.16;;;34.32;35.24
56402;BME280;42299;35.160;26.100;2022-07-11T06:08:22;100711.63;;;34.35;35.28
56402;BME280;42299;35.160;26.100;2022-07-11T06:10:01;100704.91;;;34.60;35.27
56402;BME280;42299;35.160;26.100;2022-07-11T06:11:26;100707.72;;;34.81;35.09
56402;BME280;42299;35.160;26.100;2022-07-11T06:12:48;100715.81;;;34.83;34.73
56402;BME280;42299;35.160;26.100;2022-07-11T06:14:10;100723.84;;;34.74;34.79
56402;BME280;42299;35.160;26.100;2022-07-11T06:15:33;100721.97;;;34.75;34.78
56402;BME280;42299;35.160;26.100;2022-07-11T06:16:55;100724.72;;;34.75;34.77
56402;BME280;42299;35.160;26.100;2022-07-11T06:18:17;100713.94;;;34.83;34.71
56402;BME280;42299;35.160;26.100;2022-07-11T06:19:39;100721.97;;;34.96;34.46
56402;BME280;42299;35.160;26.100;2022-07-11T06:21:01;100722.19;;;35.04;34.02
56402;BME280;42299;35.160;26.100;2022-07-11T06:22:23;100710.81;;;35.08;34.12
56402;BME280;42299;35.160;26.100;2022-07-11T06:23:45;100721.31;;;35.03;33.89
56402;BME280;42299;35.160;26.100;2022-07-11T06:25:08;100720.69;;;34.79;34.01
56402;BME280;42299;35.160;26.100;2022-07-11T06:26:32;100716.97;;;34.69;34.02
56402;BME280;42299;35.160;26.100;2022-07-11T06:27:54;100723.41;;;34.58;33.85
56402;BME280;42299;35.160;26.100;2022-07-11T06:29:17;100725.69;;;34.42;34.23
56402;BME280;42299;35.160;26.100;2022-07-11T06:30:39;100727.03;;;34.48;34.26
56402;BME280;42299;35.160;26.100;2022-07-11T06:32:01;100729.41;;;34.41;34.56
56402;BME280;42299;35.160;26.100;2022-07-11T06:33:23;100718.97;;;34.46;34.03
56402;BME280;42299;35.160;26.100;2022-07-11T06:34:46;100725.22;;;34.37;33.98
56402;BME280;42299;35.160;26.100;2022-07-11T06:36:09;100729.97;;;34.24;33.87
56402;BME280;42299;35.160;26.100;2022-07-11T06:37:34;100726.00;;;34.06;34.68
56402;BME280;42299;35.160;26.100;2022-07-11T06:38:56;100734.59;;;34.01;34.97
56402;BME280;42299;35.160;26.100;2022-07-11T06:40:19;100734.75;;;33.99;35.02
56402;BME280;42299;35.160;26.100;2022-07-11T06:41:42;100736.81;;;34.07;35.12
56402;BME280;42299;35.160;26.100;2022-07-11T06:43:05;100735.69;;;34.21;34.99
56402;BME280;42299;35.160;26.100;2022-07-11T06:44:27;100735.19;;;34.27;34.94
56402;BME280;42299;35.160;26.100;2022-07-11T06:45:49;100734.94;;;34.19;34.91
56402;BME280;42299;35.160;26.100;2022-07-11T06:47:12;100724.00;;;34.19;34.99
56402;BME280;42299;35.160;26.100;2022-07-11T06:48:34;100736.47;;;34.23;34.97
56402;BME280;42299;35.160;26.100;2022-07-11T06:49:57;100739.03;;;34.35;34.95
56402;BME280;42299;35.160;26.100;2022-07-11T06:51:18;100740.75;;;34.48;34.65
56402;BME280;42299;35.160;26.100;2022-07-11T06:52:42;100740.44;;;34.62;34.60
56402;BME280;42299;35.160;26.100;2022-07-11T06:54:04;100745.34;;;34.58;34.33
56402;BME280;42299;35.160;26.100;2022-07-11T06:55:27;100753.91;;;34.65;34.19
56402;BME280;42299;35.160;26.100;2022-07-11T06:56:51;100757.75;;;34.73;34.26
56402;BME280;42299;35.160;26.100;2022-07-11T06:58:13;100748.88;;;34.81;34.21
56402;BME280;42299;35.160;26.100;2022-07-11T06:59:52;100738.69;;;34.93;34.10
56402;BME280;42299;35.160;26.100;2022-07-11T07:01:15;100739.53;;;34.84;34.03
56402;BME280;42299;35.160;26.100;2022-07-11T07:02:38;100736.97;;;34.71;34.33
56402;BME280;42299;35.160;26.100;2022-07-11T07:04:00;100745.94;;;34.62;34.25
56402;BME280;42299;35.160;26.100;2022-07-11T07:05:24;100744.59;;;34.56;34.38
56402;BME280;42299;35.160;26.100;2022-07-11T07:06:47;100742.88;;;34.44;34.75